createdAt,value
2019-05-30T00:00:57.867Z,94546.41
2019-05-30T00:15:50.895Z,94545.49
2019-05-30T00:30:50.994Z,94547.85
2019-05-30T00:45:50.844Z,94537.07
2019-05-30T01:00:50.954Z,94555.93
2019-05-30T01:15:54.174Z,94549.19
2019-05-30T01:31:02.965Z,94568.75
2019-05-30T01:45:51.125Z,94565.95
2019-05-30T02:00:51.121Z,94582.14
2019-05-30T02:15:51.565Z,94593.17
2019-05-30T02:30:52.964Z,94591.76
2019-05-30T02:45:51.433Z,94597.11
2019-05-30T03:00:54.407Z,94594.84
2019-05-30T03:15:56.822Z,94603.25
2019-05-30T03:30:50.742Z,94604.60
2019-05-30T03:45:51.019Z,94616.98
2019-05-30T04:15:51.156Z,94626.91
2019-05-30T04:31:00.090Z,94629.72
2019-05-30T04:45:54.479Z,94629.09
2019-05-30T05:00:50.907Z,94643.66
2019-05-30T05:15:53.292Z,94653.05
2019-05-30T05:30:51.371Z,94678.83
2019-05-30T05:45:52.522Z,94687.36
2019-05-30T06:00:54.446Z,94690.06
2019-05-30T06:15:55.593Z,94694.81
2019-05-30T06:30:50.683Z,94703.85
2019-05-30T06:45:53.531Z,94706.94
2019-05-30T07:00:50.654Z,94696.55
2019-05-30T07:15:50.923Z,94711.55
2019-05-30T07:30:50.829Z,94705.05
2019-05-30T07:45:58.254Z,94711.28
2019-05-30T08:00:56.938Z,94703.13
2019-05-30T08:15:51.242Z,94704.47
2019-05-30T08:30:51.618Z,94703.87
2019-05-30T08:45:52.154Z,94698.36
2019-05-30T09:00:57.131Z,94712.19
2019-05-30T09:15:51.554Z,94708.84
2019-05-30T09:30:51.510Z,94688.70
2019-05-30T09:45:51.509Z,94689.07
2019-05-30T10:00:52.305Z,94671.68
2019-05-30T10:15:50.746Z,94674.92
2019-05-30T10:30:57.778Z,94664.86
2019-05-30T10:45:51.604Z,94680.81
2019-05-30T11:00:58.193Z,94671.11
2019-05-30T11:15:51.660Z,94662.30
2019-05-30T11:30:52.790Z,94669.08
2019-05-30T11:45:51.658Z,94667.02
2019-05-30T12:00:52.945Z,94655.27
2019-05-30T12:15:51.452Z,94646.55
2019-05-30T12:30:56.871Z,94645.13
2019-05-30T12:45:54.927Z,94644.39
2019-05-30T13:00:51.298Z,94654.30
2019-05-30T13:15:50.711Z,94645.43
2019-05-30T13:30:50.750Z,94653.11
2019-05-30T13:45:56.466Z,94666.67
2019-05-30T14:00:50.602Z,94643.28
2019-05-30T14:15:50.967Z,94643.16
2019-05-30T14:30:53.949Z,94640.47
2019-05-30T14:45:50.916Z,94647.20
2019-05-30T15:00:54.578Z,94642.32
2019-05-30T15:15:51.170Z,94641.74
2019-05-30T15:30:53.162Z,94649.55
2019-05-30T15:45:51.126Z,94647.94
2019-05-30T16:00:57.178Z,94639.55
2019-05-30T16:15:50.582Z,94644.98
2019-05-30T16:30:52.512Z,94650.32
2019-05-30T16:45:50.558Z,94650.45
2019-05-30T17:00:50.769Z,94658.53
2019-05-30T17:15:56.712Z,94662.08
2019-05-30T17:30:50.905Z,94669.27
2019-05-30T17:45:50.760Z,94678.84
2019-05-30T18:00:50.696Z,94692.92
2019-05-30T18:15:58.123Z,94718.48
2019-05-30T18:30:51.071Z,94732.76
2019-05-30T18:45:54.217Z,94746.12
2019-05-30T19:01:00.098Z,94753.44
2019-05-30T19:15:51.399Z,94773.09
2019-05-30T19:30:51.488Z,94781.72
2019-05-30T19:45:57.376Z,94782.59
2019-05-30T20:00:58.490Z,94784.80
2019-05-30T21:00:50.575Z,94814.34
2019-05-30T21:15:50.549Z,94827.61
2019-05-30T21:30:50.415Z,94834.51
2019-05-30T21:45:50.480Z,94839.34
2019-05-30T22:15:52.175Z,94834.57
2019-05-30T22:30:51.246Z,94832.61
2019-05-30T22:45:52.470Z,94833.17
2019-05-30T23:00:57.205Z,94829.34
2019-05-30T23:15:52.750Z,94825.61
2019-05-30T23:30:51.877Z,94829.97
2019-05-30T23:45:51.379Z,94816.88
